createdAt,value
2023-07-15T00:01:20.205Z,10.00
2023-07-15T00:04:23.116Z,9.25
2023-07-15T00:07:26.928Z,10.25
2023-07-15T00:10:29.472Z,9.00
2023-07-15T00:13:32.493Z,8.75
2023-07-15T00:16:35.835Z,10.75
2023-07-15T00:19:39.264Z,9.75
2023-07-15T00:22:45.748Z,13.50
2023-07-15T00:25:50.075Z,11.50
2023-07-15T00:28:53.027Z,12.75
2023-07-15T00:31:57.367Z,12.00
2023-07-15T00:34:59.986Z,12.00
2023-07-15T00:38:02.868Z,12.00
2023-07-15T00:41:16.515Z,11.00
2023-07-15T00:44:19.221Z,10.00
2023-07-15T00:47:32.626Z,12.25
2023-07-15T00:50:35.617Z,11.25
2023-07-15T00:53:38.689Z,12.75
2023-07-15T00:56:42.937Z,12.50
2023-07-15T00:59:46.747Z,14.00
2023-07-15T01:02:49.924Z,14.00
2023-07-15T01:05:53.275Z,9.75
2023-07-15T01:08:56.145Z,13.75
2023-07-15T01:11:58.793Z,12.25
2023-07-15T01:15:04.297Z,15.25
2023-07-15T01:18:06.782Z,15.00
2023-07-15T01:21:09.812Z,15.00
2023-07-15T01:24:12.586Z,13.25
2023-07-15T01:27:16.179Z,14.00
2023-07-15T01:30:18.774Z,11.75
2023-07-15T01:33:23.371Z,13.25
2023-07-15T01:36:26.561Z,14.50
2023-07-15T01:39:29.575Z,14.00
2023-07-15T01:42:32.146Z,15.25
2023-07-15T01:45:35.013Z,14.25
2023-07-15T01:48:37.978Z,13.50
2023-07-15T01:51:41.119Z,15.25
2023-07-15T01:54:43.835Z,12.00
2023-07-15T01:57:46.945Z,13.25
2023-07-15T02:00:52.084Z,12.25
2023-07-15T02:03:55.492Z,15.50
2023-07-15T02:06:58.369Z,15.00
2023-07-15T02:10:01.318Z,18.75
2023-07-15T02:13:03.924Z,19.00
2023-07-15T02:16:08.652Z,19.00
2023-07-15T02:19:12.149Z,17.25
2023-07-15T02:22:15.036Z,20.25
2023-07-15T02:25:18.058Z,18.00
2023-07-15T02:28:22.872Z,18.00
2023-07-15T02:31:25.721Z,17.50
2023-07-15T02:34:28.836Z,19.50
2023-07-15T02:37:31.415Z,19.00
2023-07-15T02:40:34.291Z,21.50
2023-07-15T02:43:36.857Z,18.50
2023-07-15T02:46:39.824Z,17.50
2023-07-15T02:49:42.287Z,18.50
2023-07-15T02:52:47.000Z,15.50
2023-07-15T02:55:51.259Z,20.00
2023-07-15T02:58:55.449Z,19.00
2023-07-15T03:01:58.529Z,19.50
2023-07-15T03:05:01.676Z,19.25
2023-07-15T03:08:04.336Z,19.00
2023-07-15T03:11:10.478Z,19.00
2023-07-15T03:14:12.961Z,17.00
2023-07-15T03:17:16.817Z,20.75
2023-07-15T03:20:22.248Z,19.75
2023-07-15T03:23:25.182Z,19.00
2023-07-15T03:26:27.661Z,16.75
2023-07-15T03:29:32.110Z,17.00
2023-07-15T03:32:38.033Z,21.00
2023-07-15T03:35:45.681Z,18.50
2023-07-15T03:38:48.325Z,20.00
2023-07-15T03:41:51.116Z,19.00
2023-07-15T03:44:54.291Z,18.75
2023-07-15T03:47:57.331Z,19.50
2023-07-15T03:51:00.008Z,17.00
2023-07-15T03:54:02.845Z,19.50
2023-07-15T03:57:05.555Z,17.00
2023-07-15T04:00:15.341Z,17.00
2023-07-15T04:03:20.269Z,17.75
2023-07-15T04:06:23.318Z,17.75
2023-07-15T04:09:26.053Z,17.00
2023-07-15T04:12:28.814Z,18.00
2023-07-15T04:15:32.183Z,18.50
2023-07-15T04:18:35.033Z,19.00
2023-07-15T04:21:37.871Z,20.50
2023-07-15T04:24:40.682Z,17.00
2023-07-15T04:27:43.721Z,18.00
2023-07-15T04:30:47.092Z,16.25
2023-07-15T04:33:51.392Z,17.25
2023-07-15T04:36:54.290Z,18.00
2023-07-15T04:39:56.770Z,18.25
2023-07-15T04:42:59.657Z,17.25
2023-07-15T04:46:02.706Z,19.00
2023-07-15T04:49:05.739Z,15.75
2023-07-15T04:52:08.583Z,18.00
2023-07-15T04:55:11.580Z,17.50
2023-07-15T04:58:19.393Z,17.00
2023-07-15T05:01:23.871Z,18.75
2023-07-15T05:04:26.411Z,12.00
2023-07-15T05:07:32.745Z,17.50
2023-07-15T05:10:45.481Z,17.00
2023-07-15T05:13:48.662Z,16.25
2023-07-15T05:16:51.655Z,17.75
2023-07-15T05:19:54.589Z,17.75
2023-07-15T05:22:57.211Z,16.50
2023-07-15T05:26:01.738Z,19.50
2023-07-15T05:29:04.472Z,18.50
2023-07-15T05:32:07.932Z,16.00
2023-07-15T05:35:10.501Z,14.00
2023-07-15T05:38:13.215Z,15.00
2023-07-15T05:41:16.297Z,16.00
2023-07-15T05:44:19.419Z,14.25
2023-07-15T05:47:21.962Z,17.75
2023-07-15T05:50:24.869Z,18.25
2023-07-15T05:53:28.643Z,16.25
2023-07-15T05:56:31.607Z,16.25
2023-07-15T05:59:34.260Z,16.00
2023-07-15T06:02:40.246Z,14.75
2023-07-15T06:05:42.844Z,15.00
2023-07-15T06:08:47.373Z,14.25
2023-07-15T06:11:50.079Z,17.50
2023-07-15T06:14:53.129Z,15.50
2023-07-15T06:18:00.690Z,13.50
2023-07-15T06:21:04.404Z,14.25
2023-07-15T06:24:07.176Z,12.50
2023-07-15T06:27:10.164Z,14.00
2023-07-15T06:30:13.107Z,13.67
2023-07-15T06:33:16.423Z,14.00
2023-07-15T06:36:18.868Z,14.00
2023-07-15T06:39:21.741Z,12.00
2023-07-15T06:42:24.326Z,11.00
2023-07-15T06:45:34.189Z,12.00
2023-07-15T06:48:36.816Z,10.00
2023-07-15T06:51:40.251Z,10.67
2023-07-15T06:54:42.695Z,11.00
2023-07-15T06:57:45.613Z,10.00
2023-07-15T07:00:48.270Z,10.67
2023-07-15T07:03:51.508Z,8.00
2023-07-15T07:06:54.003Z,9.00
2023-07-15T07:09:56.706Z,8.33
2023-07-15T07:12:59.313Z,7.33
2023-07-15T07:16:02.114Z,8.00
2023-07-15T07:19:04.745Z,7.67
2023-07-15T07:22:07.756Z,7.33
2023-07-15T07:25:10.994Z,9.00
2023-07-15T07:28:13.902Z,8.00
2023-07-15T07:31:19.432Z,6.33
2023-07-15T07:34:22.630Z,8.00
2023-07-15T07:37:25.289Z,8.00
2023-07-15T07:40:28.177Z,7.00
2023-07-15T07:43:30.736Z,7.33
2023-07-15T07:46:33.534Z,8.33
2023-07-15T07:49:36.133Z,7.00
2023-07-15T07:52:39.025Z,6.00
2023-07-15T07:55:41.535Z,6.50
2023-07-15T07:58:45.747Z,6.25
2023-07-15T08:01:48.457Z,6.00
2023-07-15T08:04:51.306Z,7.00
2023-07-15T08:07:53.950Z,6.50
2023-07-15T08:10:56.809Z,5.00
2023-07-15T08:13:59.254Z,6.50
2023-07-15T08:17:02.229Z,6.00
2023-07-15T08:20:05.480Z,4.00
2023-07-15T08:23:08.471Z,6.00
2023-07-15T08:26:11.166Z,6.50
2023-07-15T08:29:14.004Z,6.00
2023-07-15T08:32:16.614Z,6.00
2023-07-15T08:35:19.547Z,6.00
2023-07-15T08:38:22.165Z,6.00
2023-07-15T08:41:25.739Z,5.25
2023-07-15T08:44:28.458Z,7.00
2023-07-15T08:47:31.542Z,7.00
2023-07-15T08:50:35.586Z,7.20
2023-07-15T08:53:40.360Z,7.00
2023-07-15T08:56:42.974Z,6.40
2023-07-15T08:59:50.701Z,8.00
2023-07-15T09:02:54.121Z,6.40
2023-07-15T09:05:56.979Z,8.00
2023-07-15T09:08:59.385Z,7.00
2023-07-15T09:12:07.592Z,8.00
2023-07-15T09:15:11.862Z,5.80
2023-07-15T09:18:16.421Z,7.60
2023-07-15T09:21:19.392Z,7.00
2023-07-15T09:24:23.581Z,9.20
2023-07-15T09:27:27.743Z,7.00
2023-07-15T09:30:30.510Z,8.60
2023-07-15T09:33:41.413Z,7.60
2023-07-15T09:36:44.548Z,10.00
2023-07-15T09:39:57.090Z,9.00
2023-07-15T09:43:00.002Z,8.00
2023-07-15T09:46:02.610Z,10.40
2023-07-15T09:49:05.580Z,8.40
2023-07-15T09:52:08.329Z,8.60
2023-07-15T09:55:11.289Z,10.00
2023-07-15T09:58:23.134Z,7.00
2023-07-15T10:01:43.125Z,7.60
2023-07-15T10:04:47.340Z,6.80
2023-07-15T10:07:52.637Z,7.20
2023-07-15T10:10:55.178Z,8.60
2023-07-15T10:13:58.349Z,8.60
2023-07-15T10:17:17.000Z,8.80
2023-07-15T10:20:20.611Z,10.00
2023-07-15T10:23:28.383Z,8.00
2023-07-15T10:26:32.457Z,8.40
2023-07-15T10:29:34.926Z,8.80
2023-07-15T10:32:37.800Z,8.00
2023-07-15T10:35:43.842Z,8.20
2023-07-15T10:38:48.556Z,8.00
2023-07-15T10:41:53.783Z,8.40
2023-07-15T10:44:56.666Z,9.00
2023-07-15T10:48:00.375Z,8.20
2023-07-15T10:51:08.592Z,8.80
2023-07-15T10:54:11.141Z,9.00
2023-07-15T10:57:18.565Z,7.80
2023-07-15T11:00:21.123Z,7.80
2023-07-15T11:03:24.542Z,8.00
2023-07-15T11:06:27.324Z,8.00
2023-07-15T11:09:30.635Z,9.00
2023-07-15T11:12:33.620Z,9.40
2023-07-15T11:15:37.289Z,9.00
2023-07-15T11:18:39.779Z,9.00
2023-07-15T11:21:44.259Z,9.00
2023-07-15T11:24:48.150Z,9.40
2023-07-15T11:27:51.567Z,8.60
2023-07-15T11:30:54.149Z,8.80
2023-07-15T11:33:58.844Z,9.75
2023-07-15T11:37:04.346Z,9.20
2023-07-15T11:40:07.704Z,9.80
2023-07-15T11:43:10.024Z,7.80
2023-07-15T11:46:13.170Z,9.80
2023-07-15T11:49:23.053Z,9.80
2023-07-15T11:52:26.063Z,10.40
2023-07-15T11:55:28.648Z,9.80
2023-07-15T11:58:46.909Z,10.60
2023-07-15T12:01:49.475Z,8.20
2023-07-15T12:04:52.370Z,9.00
2023-07-15T12:07:54.950Z,8.20
2023-07-15T12:10:58.719Z,8.20
2023-07-15T12:14:02.437Z,8.40
2023-07-15T12:17:06.363Z,10.40
2023-07-15T12:20:09.352Z,7.00
2023-07-15T12:23:12.157Z,9.40
2023-07-15T12:26:15.072Z,9.60
2023-07-15T12:29:18.134Z,9.00
2023-07-15T12:32:20.753Z,9.80
2023-07-15T12:35:23.597Z,7.80
2023-07-15T12:38:26.100Z,10.00
2023-07-15T12:41:29.109Z,9.60
2023-07-15T12:44:31.586Z,8.20
2023-07-15T12:47:34.453Z,8.20
2023-07-15T12:50:37.033Z,10.00
2023-07-15T12:53:40.001Z,7.20
2023-07-15T12:56:42.516Z,8.80
2023-07-15T12:59:45.269Z,7.40
2023-07-15T13:02:48.145Z,8.60
2023-07-15T13:05:51.100Z,8.00
2023-07-15T13:08:53.624Z,8.00
2023-07-15T13:11:56.440Z,7.00
2023-07-15T13:14:59.052Z,6.00
2023-07-15T13:18:01.953Z,7.20
2023-07-15T13:21:04.544Z,8.00
2023-07-15T13:24:07.551Z,8.00
2023-07-15T13:27:10.030Z,6.40
2023-07-15T13:30:12.944Z,8.00
2023-07-15T13:33:15.404Z,8.20
2023-07-15T13:36:18.257Z,7.80
2023-07-15T13:39:41.013Z,7.60
2023-07-15T13:42:43.896Z,8.40
2023-07-15T13:45:47.411Z,7.40
2023-07-15T13:48:50.496Z,7.00
2023-07-15T13:51:53.142Z,7.00
2023-07-15T13:54:56.006Z,9.00
2023-07-15T13:57:58.587Z,7.20
2023-07-15T14:01:01.632Z,8.20
2023-07-15T14:04:04.371Z,8.60
2023-07-15T14:07:09.777Z,8.60
2023-07-15T14:10:13.470Z,9.00
2023-07-15T14:13:16.556Z,7.40
2023-07-15T14:16:19.176Z,8.40
2023-07-15T14:19:22.402Z,7.40
2023-07-15T14:22:38.433Z,8.00
2023-07-15T14:25:41.825Z,9.00
2023-07-15T14:28:44.636Z,3.40
2023-07-15T14:31:47.642Z,9.60
2023-07-15T14:34:50.190Z,8.00
2023-07-15T14:37:53.036Z,6.00
2023-07-15T14:40:55.620Z,7.00
2023-07-15T14:43:58.533Z,8.20
2023-07-15T14:47:01.279Z,9.00
2023-07-15T14:50:04.442Z,8.00
2023-07-15T14:53:08.530Z,8.60
2023-07-15T14:56:11.473Z,10.00
2023-07-15T14:59:14.051Z,9.00
2023-07-15T15:02:16.915Z,8.00
2023-07-15T15:05:19.478Z,9.00
2023-07-15T15:08:22.321Z,9.00
2023-07-15T15:11:24.927Z,9.60
2023-07-15T15:14:27.820Z,9.60
2023-07-15T15:17:30.235Z,9.00
2023-07-15T15:20:33.193Z,9.00
2023-07-15T15:23:35.673Z,10.20
2023-07-15T15:26:38.555Z,9.80
2023-07-15T15:29:41.045Z,9.00
2023-07-15T15:32:43.925Z,10.20
2023-07-15T15:35:46.463Z,8.60
2023-07-15T15:38:49.396Z,8.80
2023-07-15T15:41:51.854Z,10.00
2023-07-15T15:44:57.433Z,8.20
2023-07-15T15:48:00.010Z,9.40
2023-07-15T15:51:02.867Z,8.00
2023-07-15T15:54:05.734Z,9.20
2023-07-15T15:57:08.924Z,9.00
2023-07-15T16:00:12.177Z,7.75
2023-07-15T16:03:14.845Z,7.00
2023-07-15T16:06:17.749Z,8.20
2023-07-15T16:09:20.661Z,8.75
2023-07-15T16:12:23.182Z,8.00
2023-07-15T16:15:25.982Z,9.00
2023-07-15T16:18:28.441Z,8.00
2023-07-15T16:21:31.239Z,9.75
2023-07-15T16:24:33.621Z,8.00
2023-07-15T16:27:36.453Z,8.20
2023-07-15T16:30:42.145Z,7.40
2023-07-15T16:33:44.983Z,7.80
2023-07-15T16:36:47.526Z,7.00
2023-07-15T16:39:50.389Z,7.00
2023-07-15T16:42:53.716Z,8.00
2023-07-15T16:45:56.500Z,8.50
2023-07-15T16:48:59.097Z,9.00
2023-07-15T16:52:01.896Z,8.00
2023-07-15T16:55:05.163Z,8.00
2023-07-15T16:58:08.054Z,8.00
2023-07-15T17:01:10.659Z,9.00
2023-07-15T17:04:13.599Z,8.00
2023-07-15T17:07:16.010Z,9.50
2023-07-15T17:10:18.762Z,6.75
2023-07-15T17:13:21.228Z,7.75
2023-07-15T17:16:25.500Z,9.25
2023-07-15T17:19:28.023Z,6.75
2023-07-15T17:22:31.042Z,9.50
2023-07-15T17:25:33.561Z,8.50
2023-07-15T17:28:36.410Z,9.00
2023-07-15T17:31:39.067Z,8.25
2023-07-15T17:34:41.987Z,9.75
2023-07-15T17:37:44.502Z,8.50
2023-07-15T17:40:48.625Z,10.50
2023-07-15T17:43:52.289Z,9.25
2023-07-15T17:46:56.523Z,8.75
2023-07-15T17:49:59.058Z,10.00
2023-07-15T17:53:01.853Z,9.00
2023-07-15T17:56:04.597Z,11.00
2023-07-15T17:59:07.442Z,9.50
2023-07-15T18:02:09.900Z,10.75
2023-07-15T18:05:12.835Z,9.50
2023-07-15T18:08:17.483Z,9.25
2023-07-15T18:11:20.550Z,9.00
2023-07-15T18:14:23.087Z,10.67
2023-07-15T18:17:25.923Z,9.00
2023-07-15T18:20:28.597Z,10.00
2023-07-15T18:23:31.412Z,9.00
2023-07-15T18:26:33.879Z,8.00
2023-07-15T18:29:36.789Z,8.67
2023-07-15T18:32:39.523Z,9.33
2023-07-15T18:35:42.406Z,10.67
2023-07-15T18:38:44.961Z,9.67
2023-07-15T18:41:47.969Z,10.67
2023-07-15T18:44:50.816Z,9.67
2023-07-15T18:47:54.623Z,10.33
2023-07-15T18:50:57.142Z,10.33
2023-07-15T18:54:00.237Z,10.00
2023-07-15T18:57:20.614Z,12.00
2023-07-15T19:00:25.990Z,10.00
2023-07-15T19:03:28.698Z,13.00
2023-07-15T19:06:31.678Z,10.00
2023-07-15T19:09:34.473Z,11.00
2023-07-15T19:12:37.387Z,11.00
2023-07-15T19:15:39.830Z,10.33
2023-07-15T19:18:43.394Z,9.67
2023-07-15T19:21:46.039Z,12.33
2023-07-15T19:24:49.027Z,11.00
2023-07-15T19:27:51.541Z,10.67
2023-07-15T19:30:54.384Z,12.33
2023-07-15T19:33:58.058Z,12.33
2023-07-15T19:37:01.384Z,13.33
2023-07-15T19:40:05.259Z,13.67
2023-07-15T19:43:08.402Z,12.33
2023-07-15T19:46:12.730Z,13.00
2023-07-15T19:49:17.779Z,12.33
2023-07-15T19:52:20.998Z,13.33
2023-07-15T19:55:25.029Z,13.67
2023-07-15T19:58:28.176Z,15.00
2023-07-15T20:01:31.880Z,15.67
2023-07-15T20:04:34.904Z,12.33
2023-07-15T20:07:39.741Z,12.33
2023-07-15T20:10:42.862Z,14.00
2023-07-15T20:13:46.616Z,13.00
2023-07-15T20:16:52.454Z,13.00
2023-07-15T20:19:56.233Z,17.00
2023-07-15T20:22:59.847Z,13.00
2023-07-15T20:26:04.736Z,12.33
2023-07-15T20:29:08.410Z,13.00
2023-07-15T20:32:21.674Z,14.33
2023-07-15T20:35:26.091Z,17.00
2023-07-15T20:38:29.727Z,14.67
2023-07-15T20:41:33.239Z,15.33
2023-07-15T20:44:36.689Z,17.00
2023-07-15T20:47:46.904Z,16.33
2023-07-15T20:50:50.598Z,15.00
2023-07-15T20:53:57.178Z,15.67
2023-07-15T20:57:00.609Z,14.00
2023-07-15T21:00:04.157Z,14.67
2023-07-15T21:03:07.684Z,14.67
2023-07-15T21:06:10.164Z,14.00
2023-07-15T21:09:13.340Z,14.67
2023-07-15T21:12:15.891Z,15.00
2023-07-15T21:15:18.710Z,15.00
2023-07-15T21:18:23.915Z,15.00
2023-07-15T21:21:26.676Z,14.00
2023-07-15T21:24:29.057Z,17.00
2023-07-15T21:27:32.043Z,15.67
2023-07-15T21:30:34.483Z,16.00
2023-07-15T21:33:37.820Z,18.00
2023-07-15T21:36:40.359Z,17.00
2023-07-15T21:39:43.261Z,16.00
2023-07-15T21:42:45.791Z,17.33
2023-07-15T21:45:48.978Z,17.33
2023-07-15T21:48:51.576Z,18.00
2023-07-15T21:51:54.444Z,18.33
2023-07-15T21:54:56.976Z,17.33
2023-07-15T21:57:59.936Z,18.00
2023-07-15T22:01:02.637Z,19.33
2023-07-15T22:04:05.717Z,19.33
2023-07-15T22:07:08.374Z,17.00
2023-07-15T22:10:11.625Z,19.50
2023-07-15T22:13:14.135Z,19.75
2023-07-15T22:16:17.327Z,18.00
2023-07-15T22:19:20.041Z,18.00
2023-07-15T22:22:23.572Z,17.00
2023-07-15T22:25:26.116Z,19.00
2023-07-15T22:28:28.959Z,18.75
2023-07-15T22:31:31.462Z,20.00
2023-07-15T22:34:37.687Z,19.50
2023-07-15T22:37:40.151Z,18.00
2023-07-15T22:40:42.904Z,18.00
2023-07-15T22:43:45.387Z,19.00
2023-07-15T22:46:48.288Z,20.00
2023-07-15T22:49:50.998Z,18.75
2023-07-15T22:52:53.780Z,19.50
2023-07-15T22:55:56.293Z,20.00
2023-07-15T22:58:59.244Z,17.50
2023-07-15T23:02:02.814Z,19.00
2023-07-15T23:05:07.499Z,19.50
2023-07-15T23:08:09.996Z,19.25
2023-07-15T23:11:12.908Z,18.50
2023-07-15T23:14:17.862Z,13.00
2023-07-15T23:17:21.986Z,19.00
2023-07-15T23:20:24.638Z,20.00
2023-07-15T23:23:27.559Z,20.25
2023-07-15T23:26:30.152Z,20.00
2023-07-15T23:29:33.069Z,18.75
2023-07-15T23:32:35.643Z,18.25
2023-07-15T23:35:45.457Z,20.00
2023-07-15T23:38:47.912Z,20.00
2023-07-15T23:41:50.720Z,20.00
2023-07-15T23:44:53.382Z,20.50
2023-07-15T23:47:56.286Z,20.00
2023-07-15T23:50:59.138Z,18.00
2023-07-15T23:54:01.914Z,19.00
2023-07-15T23:57:04.705Z,18.00
